sensor_id;sensor_type;location;lat;lon;timestamp;P1;durP1;ratioP1;P2;durP2;ratioP2
71490;SDS011;59307;50.060;9.150;2023-03-13T00:01:28;13.13;;;2.43;;
71490;SDS011;59307;50.060;9.150;2023-03-13T00:03:54;13.75;;;3.08;;
71490;SDS011;59307;50.060;9.150;2023-03-13T00:06:19;13.80;;;2.83;;
71490;SDS011;59307;50.060;9.150;2023-03-13T00:08:45;16.55;;;3.63;;
71490;SDS011;59307;50.060;9.150;2023-03-13T00:11:10;12.70;;;2.60;;
71490;SDS011;59307;50.060;9.150;2023-03-13T00:13:36;15.03;;;2.60;;
71490;SDS011;59307;50.060;9.150;2023-03-13T00:16:02;12.63;;;2.45;;
71490;SDS011;59307;50.060;9.150;2023-03-13T00:18:28;14.17;;;2.83;;
71490;SDS011;59307;50.060;9.150;2023-03-13T00:21:04;11.07;;;2.42;;
71490;SDS011;59307;50.060;9.150;2023-03-13T00:23:29;14.10;;;2.60;;
71490;SDS011;59307;50.060;9.150;2023-03-13T00:25:58;16.60;;;2.90;;
71490;SDS011;59307;50.060;9.150;2023-03-13T00:28:23;13.15;;;3.28;;
71490;SDS011;59307;50.060;9.150;2023-03-13T00:30:49;18.60;;;3.17;;
71490;SDS011;59307;50.060;9.150;2023-03-13T00:33:14;13.10;;;2.80;;
71490;SDS011;59307;50.060;9.150;2023-03-13T00:35:39;14.13;;;2.77;;
71490;SDS011;59307;50.060;9.150;2023-03-13T00:38:04;11.97;;;2.40;;
71490;SDS011;59307;50.060;9.150;2023-03-13T00:40:29;12.30;;;3.10;;
71490;SDS011;59307;50.060;9.150;2023-03-13T00:42:54;13.20;;;2.40;;
71490;SDS011;59307;50.060;9.150;2023-03-13T00:45:20;17.20;;;2.97;;
71490;SDS011;59307;50.060;9.150;2023-03-13T00:47:45;12.83;;;2.40;;
71490;SDS011;59307;50.060;9.150;2023-03-13T00:50:10;12.93;;;2.50;;
71490;SDS011;59307;50.060;9.150;2023-03-13T00:52:35;15.73;;;3.43;;
71490;SDS011;59307;50.060;9.150;2023-03-13T00:55:00;14.23;;;2.77;;
71490;SDS011;59307;50.060;9.150;2023-03-13T00:57:25;11.87;;;2.33;;
71490;SDS011;59307;50.060;9.150;2023-03-13T00:59:51;18.20;;;3.00;;
71490;SDS011;59307;50.060;9.150;2023-03-13T01:02:16;11.47;;;2.87;;
71490;SDS011;59307;50.060;9.150;2023-03-13T01:04:41;12.07;;;2.42;;
71490;SDS011;59307;50.060;9.150;2023-03-13T01:07:06;13.37;;;2.43;;
71490;SDS011;59307;50.060;9.150;2023-03-13T01:09:32;14.13;;;2.50;;
71490;SDS011;59307;50.060;9.150;2023-03-13T01:11:58;15.73;;;2.80;;
71490;SDS011;59307;50.060;9.150;2023-03-13T01:14:23;17.23;;;2.50;;
71490;SDS011;59307;50.060;9.150;2023-03-13T01:16:48;15.20;;;2.70;;
71490;SDS011;59307;50.060;9.150;2023-03-13T01:19:14;11.83;;;2.83;;
71490;SDS011;59307;50.060;9.150;2023-03-13T01:21:40;14.63;;;2.40;;
71490;SDS011;59307;50.060;9.150;2023-03-13T01:24:05;16.48;;;2.85;;
71490;SDS011;59307;50.060;9.150;2023-03-13T01:26:31;13.57;;;2.53;;
71490;SDS011;59307;50.060;9.150;2023-03-13T01:28:56;13.37;;;2.23;;
71490;SDS011;59307;50.060;9.150;2023-03-13T01:31:22;11.07;;;2.07;;
71490;SDS011;59307;50.060;9.150;2023-03-13T01:33:49;10.85;;;2.25;;
71490;SDS011;59307;50.060;9.150;2023-03-13T01:36:15;13.48;;;2.65;;
71490;SDS011;59307;50.060;9.150;2023-03-13T01:38:40;17.27;;;2.40;;
71490;SDS011;59307;50.060;9.150;2023-03-13T01:41:06;12.57;;;2.33;;
71490;SDS011;59307;50.060;9.150;2023-03-13T01:43:32;16.73;;;2.65;;
71490;SDS011;59307;50.060;9.150;2023-03-13T01:50:54;13.87;;;2.63;;
71490;SDS011;59307;50.060;9.150;2023-03-13T01:53:20;14.82;;;2.40;;
71490;SDS011;59307;50.060;9.150;2023-03-13T01:55:46;15.23;;;2.73;;
71490;SDS011;59307;50.060;9.150;2023-03-13T01:58:11;15.80;;;2.60;;
71490;SDS011;59307;50.060;9.150;2023-03-13T02:00:37;17.70;;;2.50;;
71490;SDS011;59307;50.060;9.150;2023-03-13T02:03:05;12.30;;;2.55;;
71490;SDS011;59307;50.060;9.150;2023-03-13T02:05:32;14.32;;;2.72;;
71490;SDS011;59307;50.060;9.150;2023-03-13T02:10:22;15.60;;;2.65;;
71490;SDS011;59307;50.060;9.150;2023-03-13T02:12:49;11.60;;;2.30;;
71490;SDS011;59307;50.060;9.150;2023-03-13T02:15:19;15.07;;;2.37;;
71490;SDS011;59307;50.060;9.150;2023-03-13T02:17:45;10.65;;;2.50;;
71490;SDS011;59307;50.060;9.150;2023-03-13T02:20:11;13.68;;;2.55;;
71490;SDS011;59307;50.060;9.150;2023-03-13T02:28:08;9.55;;;2.25;;
71490;SDS011;59307;50.060;9.150;2023-03-13T02:30:36;9.23;;;1.95;;
71490;SDS011;59307;50.060;9.150;2023-03-13T02:33:02;9.83;;;2.37;;
71490;SDS011;59307;50.060;9.150;2023-03-13T02:35:27;13.00;;;1.97;;
71490;SDS011;59307;50.060;9.150;2023-03-13T02:37:54;11.68;;;2.00;;
71490;SDS011;59307;50.060;9.150;2023-03-13T02:40:23;12.13;;;2.10;;
71490;SDS011;59307;50.060;9.150;2023-03-13T02:42:50;9.83;;;1.83;;
71490;SDS011;59307;50.060;9.150;2023-03-13T02:45:16;12.30;;;2.10;;
71490;SDS011;59307;50.060;9.150;2023-03-13T02:47:41;13.63;;;2.20;;
71490;SDS011;59307;50.060;9.150;2023-03-13T02:50:07;14.93;;;2.20;;
71490;SDS011;59307;50.060;9.150;2023-03-13T02:52:44;10.97;;;2.10;;
71490;SDS011;59307;50.060;9.150;2023-03-13T02:55:14;11.48;;;1.60;;
71490;SDS011;59307;50.060;9.150;2023-03-13T02:57:42;12.10;;;2.75;;
71490;SDS011;59307;50.060;9.150;2023-03-13T03:00:07;16.20;;;2.23;;
71490;SDS011;59307;50.060;9.150;2023-03-13T03:02:36;11.65;;;2.50;;
71490;SDS011;59307;50.060;9.150;2023-03-13T03:05:01;13.10;;;2.20;;
71490;SDS011;59307;50.060;9.150;2023-03-13T03:07:26;8.47;;;1.67;;
71490;SDS011;59307;50.060;9.150;2023-03-13T03:09:52;10.23;;;2.33;;
71490;SDS011;59307;50.060;9.150;2023-03-13T03:12:17;14.93;;;1.87;;
71490;SDS011;59307;50.060;9.150;2023-03-13T03:14:42;13.47;;;2.57;;
71490;SDS011;59307;50.060;9.150;2023-03-13T03:17:07;13.60;;;2.20;;
71490;SDS011;59307;50.060;9.150;2023-03-13T03:19:32;10.90;;;2.03;;
71490;SDS011;59307;50.060;9.150;2023-03-13T03:21:58;14.43;;;2.27;;
71490;SDS011;59307;50.060;9.150;2023-03-13T03:24:23;11.37;;;2.33;;
71490;SDS011;59307;50.060;9.150;2023-03-13T03:26:48;14.50;;;2.37;;
71490;SDS011;59307;50.060;9.150;2023-03-13T03:29:13;12.27;;;2.00;;
71490;SDS011;59307;50.060;9.150;2023-03-13T03:31:38;13.93;;;2.13;;
71490;SDS011;59307;50.060;9.150;2023-03-13T03:34:04;9.10;;;1.93;;
71490;SDS011;59307;50.060;9.150;2023-03-13T03:36:29;10.60;;;1.83;;
71490;SDS011;59307;50.060;9.150;2023-03-13T03:38:54;12.63;;;2.20;;
71490;SDS011;59307;50.060;9.150;2023-03-13T03:41:19;12.57;;;1.93;;
71490;SDS011;59307;50.060;9.150;2023-03-13T03:43:44;15.37;;;2.33;;
71490;SDS011;59307;50.060;9.150;2023-03-13T03:46:11;9.55;;;1.80;;
71490;SDS011;59307;50.060;9.150;2023-03-13T03:48:36;12.63;;;2.23;;
71490;SDS011;59307;50.060;9.150;2023-03-13T03:51:02;13.13;;;2.13;;
71490;SDS011;59307;50.060;9.150;2023-03-13T03:53:27;13.70;;;2.20;;
71490;SDS011;59307;50.060;9.150;2023-03-13T03:55:52;12.77;;;1.97;;
71490;SDS011;59307;50.060;9.150;2023-03-13T03:58:18;18.17;;;2.53;;
71490;SDS011;59307;50.060;9.150;2023-03-13T04:00:43;10.73;;;2.00;;
71490;SDS011;59307;50.060;9.150;2023-03-13T04:03:09;10.63;;;2.20;;
71490;SDS011;59307;50.060;9.150;2023-03-13T04:05:34;15.50;;;2.20;;
71490;SDS011;59307;50.060;9.150;2023-03-13T04:07:59;12.07;;;1.87;;
71490;SDS011;59307;50.060;9.150;2023-03-13T04:10:24;12.23;;;2.43;;
71490;SDS011;59307;50.060;9.150;2023-03-13T04:12:50;8.73;;;1.87;;
71490;SDS011;59307;50.060;9.150;2023-03-13T04:15:15;13.27;;;2.10;;
71490;SDS011;59307;50.060;9.150;2023-03-13T04:17:40;6.80;;;1.97;;
71490;SDS011;59307;50.060;9.150;2023-03-13T04:20:05;8.83;;;1.90;;
71490;SDS011;59307;50.060;9.150;2023-03-13T04:22:31;13.02;;;2.53;;
71490;SDS011;59307;50.060;9.150;2023-03-13T04:24:57;10.15;;;2.28;;
71490;SDS011;59307;50.060;9.150;2023-03-13T04:27:22;8.67;;;2.07;;
71490;SDS011;59307;50.060;9.150;2023-03-13T04:29:48;8.43;;;2.10;;
71490;SDS011;59307;50.060;9.150;2023-03-13T04:32:13;9.40;;;1.90;;
71490;SDS011;59307;50.060;9.150;2023-03-13T04:34:38;14.90;;;2.03;;
71490;SDS011;59307;50.060;9.150;2023-03-13T04:37:03;8.43;;;2.33;;
71490;SDS011;59307;50.060;9.150;2023-03-13T04:39:29;5.90;;;2.13;;
71490;SDS011;59307;50.060;9.150;2023-03-13T04:41:54;11.03;;;2.00;;
71490;SDS011;59307;50.060;9.150;2023-03-13T04:44:20;12.57;;;1.73;;
71490;SDS011;59307;50.060;9.150;2023-03-13T04:46:45;8.88;;;1.80;;
71490;SDS011;59307;50.060;9.150;2023-03-13T04:49:11;8.43;;;2.23;;
71490;SDS011;59307;50.060;9.150;2023-03-13T04:51:36;12.05;;;2.15;;
71490;SDS011;59307;50.060;9.150;2023-03-13T04:54:01;6.67;;;1.60;;
71490;SDS011;59307;50.060;9.150;2023-03-13T04:56:27;6.00;;;1.90;;
71490;SDS011;59307;50.060;9.150;2023-03-13T04:58:53;8.77;;;1.83;;
71490;SDS011;59307;50.060;9.150;2023-03-13T05:01:18;10.77;;;1.80;;
71490;SDS011;59307;50.060;9.150;2023-03-13T05:03:43;8.33;;;1.73;;
71490;SDS011;59307;50.060;9.150;2023-03-13T05:06:09;4.27;;;1.63;;
71490;SDS011;59307;50.060;9.150;2023-03-13T05:08:34;6.77;;;1.70;;
71490;SDS011;59307;50.060;9.150;2023-03-13T05:11:02;8.77;;;1.97;;
71490;SDS011;59307;50.060;9.150;2023-03-13T05:13:28;6.43;;;2.03;;
71490;SDS011;59307;50.060;9.150;2023-03-13T05:15:53;9.67;;;2.17;;
71490;SDS011;59307;50.060;9.150;2023-03-13T05:18:18;10.53;;;2.37;;
71490;SDS011;59307;50.060;9.150;2023-03-13T05:20:43;7.33;;;2.07;;
71490;SDS011;59307;50.060;9.150;2023-03-13T05:23:08;8.90;;;2.20;;
71490;SDS011;59307;50.060;9.150;2023-03-13T05:25:34;11.20;;;2.50;;
71490;SDS011;59307;50.060;9.150;2023-03-13T05:27:59;10.13;;;2.60;;
71490;SDS011;59307;50.060;9.150;2023-03-13T05:30:24;10.13;;;2.43;;
71490;SDS011;59307;50.060;9.150;2023-03-13T05:32:49;7.67;;;2.30;;
71490;SDS011;59307;50.060;9.150;2023-03-13T05:35:15;10.63;;;2.40;;
71490;SDS011;59307;50.060;9.150;2023-03-13T05:37:40;11.30;;;2.73;;
71490;SDS011;59307;50.060;9.150;2023-03-13T05:40:05;5.70;;;1.97;;
71490;SDS011;59307;50.060;9.150;2023-03-13T05:42:31;8.30;;;2.03;;
71490;SDS011;59307;50.060;9.150;2023-03-13T05:44:56;6.37;;;2.03;;
71490;SDS011;59307;50.060;9.150;2023-03-13T05:47:21;8.63;;;2.10;;
71490;SDS011;59307;50.060;9.150;2023-03-13T05:49:46;9.50;;;2.40;;
71490;SDS011;59307;50.060;9.150;2023-03-13T05:52:11;9.03;;;2.37;;
71490;SDS011;59307;50.060;9.150;2023-03-13T05:54:37;6.80;;;2.10;;
71490;SDS011;59307;50.060;9.150;2023-03-13T05:57:02;10.38;;;2.33;;
71490;SDS011;59307;50.060;9.150;2023-03-13T05:59:27;9.43;;;2.40;;
71490;SDS011;59307;50.060;9.150;2023-03-13T06:01:53;8.53;;;2.33;;
71490;SDS011;59307;50.060;9.150;2023-03-13T06:04:18;7.20;;;2.87;;
71490;SDS011;59307;50.060;9.150;2023-03-13T06:06:43;6.53;;;2.27;;
71490;SDS011;59307;50.060;9.150;2023-03-13T06:09:10;5.90;;;2.13;;
71490;SDS011;59307;50.060;9.150;2023-03-13T06:11:35;6.37;;;2.40;;
71490;SDS011;59307;50.060;9.150;2023-03-13T06:14:01;5.67;;;2.63;;
71490;SDS011;59307;50.060;9.150;2023-03-13T06:16:26;5.80;;;2.13;;
71490;SDS011;59307;50.060;9.150;2023-03-13T06:18:51;5.80;;;2.20;;
71490;SDS011;59307;50.060;9.150;2023-03-13T06:21:16;5.47;;;2.33;;
71490;SDS011;59307;50.060;9.150;2023-03-13T06:23:41;6.50;;;2.07;;
71490;SDS011;59307;50.060;9.150;2023-03-13T06:26:07;3.60;;;2.30;;
71490;SDS011;59307;50.060;9.150;2023-03-13T06:28:32;5.53;;;2.37;;
71490;SDS011;59307;50.060;9.150;2023-03-13T06:31:04;4.50;;;2.00;;
71490;SDS011;59307;50.060;9.150;2023-03-13T06:33:29;5.70;;;2.30;;
71490;SDS011;59307;50.060;9.150;2023-03-13T06:35:55;7.30;;;2.10;;
71490;SDS011;59307;50.060;9.150;2023-03-13T06:38:20;5.53;;;2.30;;
71490;SDS011;59307;50.060;9.150;2023-03-13T06:40:45;8.47;;;2.70;;
71490;SDS011;59307;50.060;9.150;2023-03-13T06:43:10;4.87;;;2.47;;
71490;SDS011;59307;50.060;9.150;2023-03-13T06:45:36;4.73;;;2.67;;
71490;SDS011;59307;50.060;9.150;2023-03-13T06:48:01;5.50;;;2.40;;
71490;SDS011;59307;50.060;9.150;2023-03-13T06:50:27;6.32;;;2.40;;
71490;SDS011;59307;50.060;9.150;2023-03-13T06:52:52;6.73;;;2.17;;
71490;SDS011;59307;50.060;9.150;2023-03-13T06:55:17;8.20;;;2.20;;
71490;SDS011;59307;50.060;9.150;2023-03-13T06:57:42;7.00;;;2.40;;
71490;SDS011;59307;50.060;9.150;2023-03-13T07:00:09;5.63;;;2.17;;
71490;SDS011;59307;50.060;9.150;2023-03-13T07:02:35;4.90;;;2.00;;
71490;SDS011;59307;50.060;9.150;2023-03-13T07:05:00;3.20;;;1.90;;
71490;SDS011;59307;50.060;9.150;2023-03-13T07:07:29;3.28;;;1.77;;
71490;SDS011;59307;50.060;9.150;2023-03-13T07:09:56;4.97;;;2.07;;
71490;SDS011;59307;50.060;9.150;2023-03-13T07:12:21;4.90;;;1.90;;
71490;SDS011;59307;50.060;9.150;2023-03-13T07:14:46;3.33;;;1.83;;
71490;SDS011;59307;50.060;9.150;2023-03-13T07:17:12;5.10;;;1.60;;
71490;SDS011;59307;50.060;9.150;2023-03-13T07:19:37;5.00;;;1.50;;
71490;SDS011;59307;50.060;9.150;2023-03-13T07:22:02;5.10;;;1.67;;
71490;SDS011;59307;50.060;9.150;2023-03-13T07:24:27;5.03;;;1.50;;
71490;SDS011;59307;50.060;9.150;2023-03-13T07:26:52;5.90;;;1.70;;
71490;SDS011;59307;50.060;9.150;2023-03-13T07:29:18;3.53;;;1.40;;
71490;SDS011;59307;50.060;9.150;2023-03-13T07:31:43;3.70;;;1.53;;
71490;SDS011;59307;50.060;9.150;2023-03-13T07:34:08;2.70;;;1.53;;
71490;SDS011;59307;50.060;9.150;2023-03-13T07:36:33;2.77;;;1.40;;
71490;SDS011;59307;50.060;9.150;2023-03-13T07:38:59;2.57;;;1.40;;
71490;SDS011;59307;50.060;9.150;2023-03-13T07:41:24;3.53;;;1.30;;
71490;SDS011;59307;50.060;9.150;2023-03-13T07:43:49;4.43;;;1.50;;
71490;SDS011;59307;50.060;9.150;2023-03-13T07:46:15;4.23;;;1.50;;
71490;SDS011;59307;50.060;9.150;2023-03-13T07:48:44;2.83;;;1.30;;
71490;SDS011;59307;50.060;9.150;2023-03-13T07:51:11;2.63;;;1.30;;
71490;SDS011;59307;50.060;9.150;2023-03-13T07:53:36;3.00;;;1.50;;
71490;SDS011;59307;50.060;9.150;2023-03-13T07:56:03;5.87;;;1.97;;
71490;SDS011;59307;50.060;9.150;2023-03-13T07:58:30;5.03;;;1.50;;
71490;SDS011;59307;50.060;9.150;2023-03-13T08:00:55;3.40;;;1.58;;
71490;SDS011;59307;50.060;9.150;2023-03-13T08:03:21;4.80;;;1.63;;
71490;SDS011;59307;50.060;9.150;2023-03-13T08:05:46;3.17;;;1.30;;
71490;SDS011;59307;50.060;9.150;2023-03-13T08:08:12;4.03;;;1.30;;
71490;SDS011;59307;50.060;9.150;2023-03-13T08:10:37;3.00;;;1.60;;
71490;SDS011;59307;50.060;9.150;2023-03-13T08:13:02;2.17;;;1.50;;
71490;SDS011;59307;50.060;9.150;2023-03-13T08:15:28;2.30;;;1.20;;
71490;SDS011;59307;50.060;9.150;2023-03-13T08:17:53;3.30;;;1.40;;
71490;SDS011;59307;50.060;9.150;2023-03-13T08:20:18;3.22;;;1.40;;
71490;SDS011;59307;50.060;9.150;2023-03-13T08:22:44;4.07;;;1.40;;
71490;SDS011;59307;50.060;9.150;2023-03-13T08:25:10;2.67;;;1.50;;
71490;SDS011;59307;50.060;9.150;2023-03-13T08:27:35;3.07;;;1.30;;
71490;SDS011;59307;50.060;9.150;2023-03-13T08:30:00;2.83;;;1.70;;
71490;SDS011;59307;50.060;9.150;2023-03-13T08:32:26;3.37;;;1.50;;
71490;SDS011;59307;50.060;9.150;2023-03-13T08:34:51;4.17;;;1.70;;
71490;SDS011;59307;50.060;9.150;2023-03-13T08:37:16;3.03;;;1.97;;
71490;SDS011;59307;50.060;9.150;2023-03-13T08:39:41;5.90;;;2.30;;
71490;SDS011;59307;50.060;9.150;2023-03-13T08:42:10;4.13;;;2.22;;
71490;SDS011;59307;50.060;9.150;2023-03-13T08:44:35;4.50;;;1.93;;
71490;SDS011;59307;50.060;9.150;2023-03-13T08:47:00;4.03;;;1.90;;
71490;SDS011;59307;50.060;9.150;2023-03-13T08:49:25;5.20;;;2.10;;
71490;SDS011;59307;50.060;9.150;2023-03-13T08:51:51;3.30;;;1.97;;
71490;SDS011;59307;50.060;9.150;2023-03-13T08:54:16;3.13;;;1.63;;
71490;SDS011;59307;50.060;9.150;2023-03-13T08:56:41;4.10;;;1.70;;
71490;SDS011;59307;50.060;9.150;2023-03-13T08:59:07;5.03;;;1.90;;
71490;SDS011;59307;50.060;9.150;2023-03-13T09:01:34;3.80;;;1.80;;
71490;SDS011;59307;50.060;9.150;2023-03-13T09:03:59;3.63;;;1.83;;
71490;SDS011;59307;50.060;9.150;2023-03-13T09:06:25;4.37;;;1.90;;
71490;SDS011;59307;50.060;9.150;2023-03-13T09:08:50;4.07;;;1.60;;
71490;SDS011;59307;50.060;9.150;2023-03-13T09:11:16;3.05;;;1.50;;
71490;SDS011;59307;50.060;9.150;2023-03-13T09:13:43;3.67;;;1.80;;
71490;SDS011;59307;50.060;9.150;2023-03-13T09:16:19;3.33;;;1.50;;
71490;SDS011;59307;50.060;9.150;2023-03-13T09:18:45;4.40;;;1.70;;
71490;SDS011;59307;50.060;9.150;2023-03-13T09:21:12;2.57;;;1.70;;
71490;SDS011;59307;50.060;9.150;2023-03-13T09:23:38;6.90;;;1.77;;
71490;SDS011;59307;50.060;9.150;2023-03-13T09:26:03;3.40;;;1.70;;
71490;SDS011;59307;50.060;9.150;2023-03-13T09:28:28;2.93;;;1.70;;
71490;SDS011;59307;50.060;9.150;2023-03-13T09:30:53;3.97;;;1.63;;
71490;SDS011;59307;50.060;9.150;2023-03-13T09:33:19;3.27;;;1.90;;
71490;SDS011;59307;50.060;9.150;2023-03-13T09:35:45;3.63;;;1.92;;
71490;SDS011;59307;50.060;9.150;2023-03-13T09:38:15;4.63;;;1.80;;
71490;SDS011;59307;50.060;9.150;2023-03-13T09:40:40;2.07;;;1.50;;
71490;SDS011;59307;50.060;9.150;2023-03-13T09:43:14;3.58;;;1.50;;
71490;SDS011;59307;50.060;9.150;2023-03-13T09:45:42;2.50;;;1.60;;
71490;SDS011;59307;50.060;9.150;2023-03-13T09:48:52;3.17;;;1.50;;
71490;SDS011;59307;50.060;9.150;2023-03-13T09:51:07;4.07;;;1.80;;
71490;SDS011;59307;50.060;9.150;2023-03-13T09:56:02;4.10;;;1.63;;
71490;SDS011;59307;50.060;9.150;2023-03-13T09:58:29;2.88;;;1.73;;
71490;SDS011;59307;50.060;9.150;2023-03-13T10:01:00;3.07;;;1.80;;
71490;SDS011;59307;50.060;9.150;2023-03-13T10:03:39;3.15;;;1.70;;
71490;SDS011;59307;50.060;9.150;2023-03-13T10:06:12;5.88;;;1.50;;
71490;SDS011;59307;50.060;9.150;2023-03-13T10:08:39;4.33;;;1.67;;
71490;SDS011;59307;50.060;9.150;2023-03-13T10:11:15;3.53;;;1.63;;
71490;SDS011;59307;50.060;9.150;2023-03-13T10:13:45;4.38;;;1.73;;
71490;SDS011;59307;50.060;9.150;2023-03-13T10:16:23;3.53;;;1.55;;
71490;SDS011;59307;50.060;9.150;2023-03-13T10:18:52;4.05;;;1.70;;
71490;SDS011;59307;50.060;9.150;2023-03-13T10:21:19;3.33;;;1.77;;
71490;SDS011;59307;50.060;9.150;2023-03-13T10:23:47;6.13;;;2.10;;
71490;SDS011;59307;50.060;9.150;2023-03-13T10:26:15;4.82;;;2.10;;
71490;SDS011;59307;50.060;9.150;2023-03-13T10:28:43;3.83;;;2.00;;
71490;SDS011;59307;50.060;9.150;2023-03-13T10:31:52;4.10;;;2.10;;
71490;SDS011;59307;50.060;9.150;2023-03-13T10:34:09;3.75;;;2.10;;
71490;SDS011;59307;50.060;9.150;2023-03-13T10:36:39;4.50;;;1.98;;
71490;SDS011;59307;50.060;9.150;2023-03-13T10:39:04;5.27;;;2.00;;
71490;SDS011;59307;50.060;9.150;2023-03-13T10:41:33;3.70;;;2.10;;
71490;SDS011;59307;50.060;9.150;2023-03-13T10:44:01;4.22;;;1.90;;
71490;SDS011;59307;50.060;9.150;2023-03-13T10:46:28;4.65;;;2.08;;
71490;SDS011;59307;50.060;9.150;2023-03-13T10:48:55;3.58;;;2.05;;
71490;SDS011;59307;50.060;9.150;2023-03-13T10:51:21;6.67;;;2.27;;
71490;SDS011;59307;50.060;9.150;2023-03-13T10:53:46;7.88;;;1.98;;
71490;SDS011;59307;50.060;9.150;2023-03-13T10:56:13;3.97;;;1.70;;
71490;SDS011;59307;50.060;9.150;2023-03-13T11:01:21;3.17;;;1.80;;
71490;SDS011;59307;50.060;9.150;2023-03-13T11:03:46;3.77;;;1.80;;
71490;SDS011;59307;50.060;9.150;2023-03-13T11:06:22;4.78;;;1.90;;
71490;SDS011;59307;50.060;9.150;2023-03-13T11:08:48;2.67;;;1.60;;
71490;SDS011;59307;50.060;9.150;2023-03-13T11:11:17;4.37;;;1.63;;
71490;SDS011;59307;50.060;9.150;2023-03-13T11:13:43;4.50;;;1.55;;
71490;SDS011;59307;50.060;9.150;2023-03-13T11:16:22;2.90;;;1.80;;
71490;SDS011;59307;50.060;9.150;2023-03-13T11:21:18;5.20;;;1.70;;
71490;SDS011;59307;50.060;9.150;2023-03-13T11:23:49;4.57;;;1.80;;
71490;SDS011;59307;50.060;9.150;2023-03-13T11:31:32;3.22;;;1.77;;
71490;SDS011;59307;50.060;9.150;2023-03-13T12:02:45;3.45;;;1.55;;
71490;SDS011;59307;50.060;9.150;2023-03-13T12:05:14;2.90;;;1.85;;
71490;SDS011;59307;50.060;9.150;2023-03-13T12:10:25;3.72;;;1.90;;
71490;SDS011;59307;50.060;9.150;2023-03-13T12:17:45;5.17;;;1.90;;
71490;SDS011;59307;50.060;9.150;2023-03-13T12:20:13;6.28;;;2.50;;
71490;SDS011;59307;50.060;9.150;2023-03-13T12:22:44;4.22;;;1.95;;
71490;SDS011;59307;50.060;9.150;2023-03-13T12:25:14;4.60;;;1.88;;
71490;SDS011;59307;50.060;9.150;2023-03-13T12:27:43;3.63;;;1.98;;
71490;SDS011;59307;50.060;9.150;2023-03-13T12:35:27;5.85;;;1.98;;
71490;SDS011;59307;50.060;9.150;2023-03-13T12:45:29;4.53;;;2.63;;
71490;SDS011;59307;50.060;9.150;2023-03-13T12:48:05;4.23;;;1.97;;
71490;SDS011;59307;50.060;9.150;2023-03-13T12:50:42;4.47;;;1.77;;
71490;SDS011;59307;50.060;9.150;2023-03-13T12:53:15;6.60;;;2.05;;
71490;SDS011;59307;50.060;9.150;2023-03-13T13:00:51;3.23;;;1.70;;
71490;SDS011;59307;50.060;9.150;2023-03-13T13:08:40;5.25;;;1.92;;
71490;SDS011;59307;50.060;9.150;2023-03-13T13:13:49;3.70;;;1.70;;
71490;SDS011;59307;50.060;9.150;2023-03-13T13:16:16;3.20;;;1.80;;
71490;SDS011;59307;50.060;9.150;2023-03-13T13:18:43;3.38;;;1.73;;
71490;SDS011;59307;50.060;9.150;2023-03-13T13:23:41;3.28;;;1.70;;
71490;SDS011;59307;50.060;9.150;2023-03-13T13:28:51;4.22;;;2.00;;
71490;SDS011;59307;50.060;9.150;2023-03-13T13:34:01;4.00;;;1.73;;
71490;SDS011;59307;50.060;9.150;2023-03-13T13:36:27;4.40;;;1.57;;
71490;SDS011;59307;50.060;9.150;2023-03-13T13:38:52;2.88;;;1.67;;
71490;SDS011;59307;50.060;9.150;2023-03-13T13:43:45;5.40;;;1.73;;
71490;SDS011;59307;50.060;9.150;2023-03-13T13:49:33;3.77;;;1.60;;
71490;SDS011;59307;50.060;9.150;2023-03-13T13:51:37;4.03;;;1.48;;
71490;SDS011;59307;50.060;9.150;2023-03-13T13:56:46;5.07;;;1.40;;
71490;SDS011;59307;50.060;9.150;2023-03-13T14:01:39;3.10;;;1.63;;
71490;SDS011;59307;50.060;9.150;2023-03-13T14:04:15;2.83;;;1.50;;
71490;SDS011;59307;50.060;9.150;2023-03-13T14:06:44;2.35;;;1.50;;
71490;SDS011;59307;50.060;9.150;2023-03-13T14:11:55;3.17;;;1.95;;
71490;SDS011;59307;50.060;9.150;2023-03-13T14:14:20;4.03;;;1.77;;
71490;SDS011;59307;50.060;9.150;2023-03-13T14:16:46;5.40;;;1.83;;
71490;SDS011;59307;50.060;9.150;2023-03-13T14:19:20;2.65;;;1.48;;
71490;SDS011;59307;50.060;9.150;2023-03-13T14:21:45;2.92;;;1.83;;
71490;SDS011;59307;50.060;9.150;2023-03-13T14:24:13;2.90;;;1.63;;
71490;SDS011;59307;50.060;9.150;2023-03-13T14:26:41;4.35;;;1.50;;
71490;SDS011;59307;50.060;9.150;2023-03-13T14:29:06;4.67;;;1.90;;
71490;SDS011;59307;50.060;9.150;2023-03-13T14:31:39;2.50;;;1.38;;
71490;SDS011;59307;50.060;9.150;2023-03-13T14:34:05;3.03;;;1.60;;
71490;SDS011;59307;50.060;9.150;2023-03-13T14:39:15;2.22;;;1.27;;
71490;SDS011;59307;50.060;9.150;2023-03-13T14:41:42;6.43;;;1.60;;
71490;SDS011;59307;50.060;9.150;2023-03-13T14:46:40;6.05;;;1.80;;
71490;SDS011;59307;50.060;9.150;2023-03-13T14:49:06;3.50;;;1.50;;
71490;SDS011;59307;50.060;9.150;2023-03-13T14:51:32;3.90;;;1.50;;
71490;SDS011;59307;50.060;9.150;2023-03-13T14:54:01;2.40;;;1.30;;
71490;SDS011;59307;50.060;9.150;2023-03-13T14:59:04;3.47;;;1.70;;
71490;SDS011;59307;50.060;9.150;2023-03-13T15:01:30;2.38;;;1.58;;
71490;SDS011;59307;50.060;9.150;2023-03-13T15:03:55;2.80;;;1.97;;
71490;SDS011;59307;50.060;9.150;2023-03-13T15:06:21;2.83;;;1.60;;
71490;SDS011;59307;50.060;9.150;2023-03-13T15:08:47;4.90;;;1.63;;
71490;SDS011;59307;50.060;9.150;2023-03-13T15:11:19;7.18;;;1.35;;
71490;SDS011;59307;50.060;9.150;2023-03-13T15:13:44;3.67;;;1.15;;
71490;SDS011;59307;50.060;9.150;2023-03-13T15:16:14;2.50;;;1.40;;
71490;SDS011;59307;50.060;9.150;2023-03-13T15:18:40;3.35;;;1.35;;
71490;SDS011;59307;50.060;9.150;2023-03-13T15:23:41;3.63;;;1.50;;
71490;SDS011;59307;50.060;9.150;2023-03-13T15:26:07;1.90;;;1.30;;
71490;SDS011;59307;50.060;9.150;2023-03-13T15:28:32;4.57;;;1.40;;
71490;SDS011;59307;50.060;9.150;2023-03-13T15:30:57;4.10;;;1.50;;
71490;SDS011;59307;50.060;9.150;2023-03-13T15:33:25;2.47;;;1.60;;
71490;SDS011;59307;50.060;9.150;2023-03-13T15:35:51;3.17;;;1.40;;
71490;SDS011;59307;50.060;9.150;2023-03-13T15:38:17;2.97;;;1.30;;
71490;SDS011;59307;50.060;9.150;2023-03-13T15:40:43;3.00;;;1.50;;
71490;SDS011;59307;50.060;9.150;2023-03-13T15:43:08;4.13;;;1.80;;
71490;SDS011;59307;50.060;9.150;2023-03-13T15:45:38;3.57;;;1.53;;
71490;SDS011;59307;50.060;9.150;2023-03-13T15:50:38;5.10;;;1.58;;
71490;SDS011;59307;50.060;9.150;2023-03-13T15:53:05;5.00;;;1.50;;
71490;SDS011;59307;50.060;9.150;2023-03-13T15:55:35;3.25;;;1.30;;
71490;SDS011;59307;50.060;9.150;2023-03-13T15:58:00;2.97;;;1.60;;
71490;SDS011;59307;50.060;9.150;2023-03-13T16:00:26;3.92;;;1.30;;
71490;SDS011;59307;50.060;9.150;2023-03-13T16:02:51;7.20;;;1.53;;
71490;SDS011;59307;50.060;9.150;2023-03-13T16:05:17;6.83;;;1.30;;
71490;SDS011;59307;50.060;9.150;2023-03-13T16:07:42;7.40;;;1.70;;
71490;SDS011;59307;50.060;9.150;2023-03-13T16:10:15;7.23;;;1.57;;
71490;SDS011;59307;50.060;9.150;2023-03-13T16:12:41;6.90;;;1.73;;
71490;SDS011;59307;50.060;9.150;2023-03-13T16:15:06;6.20;;;1.50;;
71490;SDS011;59307;50.060;9.150;2023-03-13T16:17:31;1.83;;;1.33;;
71490;SDS011;59307;50.060;9.150;2023-03-13T16:19:56;4.93;;;1.47;;
71490;SDS011;59307;50.060;9.150;2023-03-13T16:22:22;4.73;;;1.40;;
71490;SDS011;59307;50.060;9.150;2023-03-13T16:24:47;2.67;;;1.30;;
71490;SDS011;59307;50.060;9.150;2023-03-13T16:27:16;4.13;;;1.53;;
71490;SDS011;59307;50.060;9.150;2023-03-13T16:29:42;2.22;;;1.30;;
71490;SDS011;59307;50.060;9.150;2023-03-13T16:32:09;5.73;;;1.73;;
71490;SDS011;59307;50.060;9.150;2023-03-13T16:34:35;3.35;;;1.40;;
71490;SDS011;59307;50.060;9.150;2023-03-13T16:37:00;2.60;;;1.40;;
71490;SDS011;59307;50.060;9.150;2023-03-13T16:39:25;4.43;;;1.70;;
71490;SDS011;59307;50.060;9.150;2023-03-13T16:41:50;2.17;;;1.40;;